Time;durP1;ratioP1;P1;durP2;ratioP2;P2;SDS_P1;SDS_P2;PMS_P1;PMS_P2;Temp;Humidity;BMP_temperature;BMP_pressure;BME280_temperature;BME280_humidity;BME280_pressure;Samples;Min_cycle;Max_cycle;Signal;HPM_P1;HPM_P2
2022/09/06 00:00:07;;;;;;;1.42;0.68;;;;;;;-140.72;100.00;52297.53;5064713;28;20037;-71
2022/09/06 00:02:34;;;;;;;1.17;0.53;;;;;;;-140.72;100.00;52269.13;5051429;28;20366;-70
2022/09/06 00:04:59;;;;;;;1.17;0.82;;;;;;;-140.72;100.00;52297.53;5070900;28;20021;-70
2022/09/06 00:07:25;;;;;;;0.52;0.32;;;;;;;-140.72;100.00;52289.41;5056954;28;20021;-72
2022/09/06 00:09:50;;;;;;;0.85;0.52;;;;;;;-140.72;100.00;52315.78;5054518;28;20024;-71
2022/09/06 00:12:15;;;;;;;0.73;0.32;;;;;;;-140.72;100.00;52254.91;5050075;28;20230;-70
2022/09/06 00:14:41;;;;;;;0.75;0.60;;;;;;;-140.72;100.00;52321.88;5073135;28;20058;-70
2022/09/06 00:17:06;;;;;;;1.23;0.65;;;;;;;-140.72;100.00;52321.88;5076584;28;20025;-71
2022/09/06 00:19:32;;;;;;;1.45;0.77;;;;;;;-140.72;100.00;52338.09;5051935;28;20175;-71
2022/09/06 00:21:57;;;;;;;0.98;0.60;;;;;;;-140.72;100.00;52327.97;5070063;28;20059;-71
2022/09/06 00:24:22;;;;;;;2.50;0.70;;;;;;;-140.72;100.00;52289.41;5070990;28;20025;-71
2022/09/06 00:26:48;;;;;;;1.02;0.40;;;;;;;-140.72;100.00;52315.78;5070035;28;20024;-70
2022/09/06 00:29:13;;;;;;;1.27;0.43;;;;;;;-140.72;100.00;52323.91;5080248;28;20067;-71
2022/09/06 00:31:39;;;;;;;0.50;0.50;;;;;;;-140.72;100.00;52336.06;5060797;28;20116;-71
2022/09/06 00:34:04;;;;;;;4.97;0.93;;;;;;;-140.72;100.00;52305.63;5069187;28;20119;-70
2022/09/06 00:36:30;;;;;;;0.85;0.60;;;;;;;-140.72;100.00;52305.63;5066955;28;20029;-70
2022/09/06 00:38:55;;;;;;;1.42;0.70;;;;;;;-140.72;100.00;52309.69;5063216;28;20036;-71
2022/09/06 00:41:21;;;;;;;1.58;0.60;;;;;;;-140.72;100.00;52293.47;5053612;28;20036;-70
2022/09/06 00:43:46;;;;;;;3.45;0.73;;;;;;;-140.72;100.00;52336.06;5067610;28;20522;-71
2022/09/06 00:46:19;;;;;;;1.40;0.85;;;;;;;-140.72;100.00;52321.88;5062093;28;20028;-70
2022/09/06 00:48:49;;;;;;;1.02;0.73;;;;;;;-140.72;100.00;52252.88;5056592;28;20025;-69
2022/09/06 00:51:16;;;;;;;2.95;1.00;;;;;;;-140.72;100.00;52301.59;5066614;28;20036;-70
2022/09/06 00:53:42;;;;;;;3.33;1.05;;;;;;;-140.72;100.00;52330.00;5050179;28;20036;-70
2022/09/06 00:56:08;;;;;;;1.25;0.85;;;;;;;-140.72;100.00;52350.28;5064332;28;20029;-70
2022/09/06 00:58:34;;;;;;;2.13;1.42;;;;;;;-140.72;100.00;52295.50;5071000;28;20116;-70
2022/09/06 01:01:00;;;;;;;2.47;1.38;;;;;;;-140.72;100.00;52325.94;5054683;28;20330;-70
2022/09/06 01:03:25;;;;;;;3.80;1.23;;;;;;;-140.72;100.00;52297.53;5050361;28;20040;-71
2022/09/06 01:05:54;;;;;;;2.20;1.52;;;;;;;-140.72;100.00;52364.47;5065378;28;20024;-71
2022/09/06 01:08:22;;;;;;;2.05;0.90;;;;;;;-140.72;100.00;52313.75;5070273;28;20024;-70
2022/09/06 01:11:32;;;;;;;1.92;1.25;;;;;;;-140.72;100.00;52313.75;5055685;28;20740;-70
2022/09/06 01:14:22;;;;;;;1.50;0.70;;;;;;;-140.72;100.00;52317.81;5049287;28;20068;-70
2022/09/06 01:17:02;;;;;;;3.00;1.10;;;;;;;-140.72;100.00;52313.75;5069677;28;20029;-69
2022/09/06 01:19:45;;;;;;;;;;;;;;;-140.72;100.00;52313.75;5062575;28;20950;-70
2022/09/06 01:22:35;;;;;;;1.75;1.25;;;;;;;-140.72;100.00;52313.75;5053791;28;19962;-70
2022/09/06 01:25:09;;;;;;;1.98;0.98;;;;;;;-140.72;100.00;52334.03;5067738;28;20358;-70
2022/09/06 01:27:52;;;;;;;1.80;1.20;;;;;;;-140.72;100.00;52348.25;5050355;28;20071;-71
2022/09/06 01:30:19;;;;;;;2.47;1.75;;;;;;;-140.72;100.00;52315.78;5063864;28;20043;-72
2022/09/06 01:33:09;;;;;;;2.50;1.85;;;;;;;-140.72;100.00;52352.31;5078173;28;20048;-70
2022/09/06 01:35:34;;;;;;;;;;;;;;;-140.72;100.00;52319.84;5070319;28;20051;-71
2022/09/06 01:38:00;;;;;;;2.40;1.50;;;;;;;-140.72;100.00;52315.78;5069893;28;20356;-70
2022/09/06 01:40:27;;;;;;;2.13;1.48;;;;;;;-140.72;100.00;52311.72;5069323;28;20016;-70
2022/09/06 01:42:53;;;;;;;3.08;1.45;;;;;;;-140.72;100.00;52342.16;5054920;28;20473;-70
2022/09/06 01:45:26;;;;;;;1.77;1.40;;;;;;;-140.72;100.00;52289.41;5057919;28;20266;-71
2022/09/06 01:48:10;;;;;;;4.75;1.70;;;;;;;-140.72;100.00;52305.63;5074467;28;20027;-71
2022/09/06 01:50:45;;;;;;;2.40;1.42;;;;;;;-140.72;100.00;52372.59;5072726;28;20050;-70
2022/09/06 01:53:27;;;;;;;2.83;1.70;;;;;;;-140.72;100.00;52350.28;5068865;28;20032;-69
2022/09/06 01:56:07;;;;;;;3.55;1.67;;;;;;;-140.72;100.00;52305.63;5056703;28;20028;-71
2022/09/06 01:58:50;;;;;;;2.67;1.80;;;;;;;-140.72;100.00;52321.88;5059102;28;20028;-71
2022/09/06 02:02:10;;;;;;;3.53;2.05;;;;;;;-140.72;100.00;52358.41;5057246;28;20151;-70
2022/09/06 02:04:41;;;;;;;;;;;;;;;-140.72;100.00;52336.06;4986765;28;20036;-71
2022/09/06 02:07:19;;;;;;;3.67;2.58;;;;;;;-140.72;100.00;52378.69;5058906;28;20071;-71
2022/09/06 02:09:48;;;;;;;3.08;2.38;;;;;;;-140.72;100.00;52378.69;5068038;28;20036;-71
2022/09/06 02:12:17;;;;;;;5.13;2.37;;;;;;;-140.72;100.00;52374.63;5061516;28;20036;-70
2022/09/06 02:14:50;;;;;;;3.37;2.20;;;;;;;-140.72;100.00;52372.59;5049287;28;20271;-71
2022/09/06 02:17:22;;;;;;;4.75;2.10;;;;;;;-140.72;100.00;52358.41;5068785;28;20216;-70
2022/09/06 02:20:05;;;;;;;3.20;2.28;;;;;;;-140.72;100.00;52344.19;5068125;28;20040;-71
2022/09/06 02:22:36;;;;;;;4.57;2.20;;;;;;;-140.72;100.00;52386.81;5068670;28;20055;-71
2022/09/06 02:25:06;;;;;;;3.67;2.08;;;;;;;-140.72;100.00;52354.34;5061099;28;20085;-70
2022/09/06 02:27:31;;;;;;;2.85;2.05;;;;;;;-140.72;100.00;52336.06;5058619;28;20032;-72
2022/09/06 02:29:57;;;;;;;3.78;2.33;;;;;;;-140.72;100.00;52338.09;5058798;28;20425;-71
2022/09/06 02:32:25;;;;;;;3.35;2.58;;;;;;;-140.72;100.00;52305.63;5067461;28;20022;-70
2022/09/06 02:34:54;;;;;;;3.72;2.35;;;;;;;-140.72;100.00;52348.25;5053938;28;20081;-71
2022/09/06 02:37:21;;;;;;;3.72;2.55;;;;;;;-140.72;100.00;52330.00;5061497;28;20377;-72
2022/09/06 02:39:47;;;;;;;3.25;2.22;;;;;;;-140.72;100.00;52338.09;5064823;28;20036;-70
2022/09/06 02:42:16;;;;;;;4.25;2.58;;;;;;;-140.72;100.00;52346.22;5070331;28;20040;-70
2022/09/06 02:44:41;;;;;;;3.60;2.53;;;;;;;-140.72;100.00;52376.66;5072715;28;20039;-70
2022/09/06 02:47:07;;;;;;;5.28;2.72;;;;;;;-140.72;100.00;52374.63;5055966;28;20024;-70
2022/09/06 02:49:33;;;;;;;4.90;3.03;;;;;;;-140.72;100.00;52362.44;5057093;28;20025;-70
2022/09/06 02:51:58;;;;;;;4.15;2.60;;;;;;;-140.72;100.00;52398.97;5065624;28;20024;-71
2022/09/06 02:54:24;;;;;;;3.72;2.80;;;;;;;-140.72;100.00;52342.16;5062836;28;20029;-71
2022/09/06 02:56:49;;;;;;;4.00;2.10;;;;;;;-140.72;100.00;52344.19;5055655;28;20021;-71
2022/09/06 02:59:15;;;;;;;3.83;2.63;;;;;;;-140.72;100.00;52386.81;5065106;28;20020;-71
2022/09/06 03:01:40;;;;;;;3.75;2.45;;;;;;;-140.72;100.00;52338.09;5057285;28;20116;-72
2022/09/06 03:04:06;;;;;;;3.15;2.35;;;;;;;-140.72;100.00;52340.13;5055166;28;20055;-73
2022/09/06 03:06:33;;;;;;;3.97;2.75;;;;;;;-140.72;100.00;52340.13;5057988;28;20071;-72
2022/09/06 03:08:59;;;;;;;4.88;2.75;;;;;;;-140.72;100.00;52358.41;5066367;28;20035;-72
2022/09/06 03:11:24;;;;;;;3.92;2.85;;;;;;;-140.72;100.00;52364.47;5056838;28;20112;-71
2022/09/06 03:13:51;;;;;;;3.58;2.60;;;;;;;-140.72;100.00;52350.28;5060638;28;20445;-71
2022/09/06 03:16:17;;;;;;;3.35;2.42;;;;;;;-140.72;100.00;52364.47;5060803;28;20365;-71
2022/09/06 03:18:43;;;;;;;4.15;2.75;;;;;;;-140.72;100.00;52332.03;5063677;28;20029;-71
2022/09/06 03:21:08;;;;;;;4.80;2.95;;;;;;;-140.72;100.00;52348.25;5063932;28;20118;-71
2022/09/06 03:23:34;;;;;;;3.50;2.30;;;;;;;-140.72;100.00;52358.41;5056429;28;20025;-70
2022/09/06 03:25:59;;;;;;;3.30;2.63;;;;;;;-140.72;100.00;52370.56;5059765;28;20023;-71
2022/09/06 03:28:25;;;;;;;5.00;2.83;;;;;;;-140.72;100.00;52330.00;5072167;28;20025;-73
2022/09/06 03:30:51;;;;;;;4.63;3.00;;;;;;;-140.72;100.00;52362.44;5061161;28;20046;-72
2022/09/06 03:33:17;;;;;;;3.83;3.03;;;;;;;-140.72;100.00;52338.09;5054373;28;20025;-72
2022/09/06 03:35:50;;;;;;;3.80;2.70;;;;;;;-140.72;100.00;52352.31;5070354;28;20029;-72
2022/09/06 03:38:16;;;;;;;3.42;2.80;;;;;;;-140.72;100.00;52334.03;5055913;28;20029;-71
2022/09/06 03:40:46;;;;;;;3.05;2.47;;;;;;;-140.72;100.00;52330.00;5059961;28;20074;-72
2022/09/06 03:43:11;;;;;;;5.25;2.80;;;;;;;-140.72;100.00;52325.94;5062843;28;20021;-71
2022/09/06 03:45:36;;;;;;;3.67;2.80;;;;;;;-140.72;100.00;52352.31;5064156;28;20048;-71
2022/09/06 03:48:02;;;;;;;4.25;3.03;;;;;;;-140.72;100.00;52358.41;5070218;28;20046;-72
2022/09/06 03:50:27;;;;;;;2.63;2.17;;;;;;;-140.72;100.00;52358.41;5058441;28;20068;-72
2022/09/06 03:52:53;;;;;;;3.30;2.20;;;;;;;-140.72;100.00;52346.22;5062205;28;20032;-71
2022/09/06 03:55:18;;;;;;;2.55;1.77;;;;;;;-140.72;100.00;52382.75;5072298;28;20433;-71
2022/09/06 03:57:43;;;;;;;3.88;2.38;;;;;;;-140.72;100.00;52348.25;5066362;28;20025;-73
2022/09/06 04:00:09;;;;;;;3.70;2.50;;;;;;;-140.72;100.00;52362.44;5067958;28;20056;-71
2022/09/06 04:02:35;;;;;;;5.45;2.72;;;;;;;-140.72;100.00;52352.31;5070212;28;20028;-71
2022/09/06 04:05:00;;;;;;;5.32;2.25;;;;;;;-140.72;100.00;52362.44;5061209;28;20100;-72
2022/09/06 04:07:25;;;;;;;4.47;2.53;;;;;;;-140.72;100.00;52362.44;5070884;28;20033;-71
2022/09/06 04:09:51;;;;;;;4.00;2.67;;;;;;;-140.72;100.00;52325.94;5050629;28;20029;-70
2022/09/06 04:12:16;;;;;;;6.35;2.83;;;;;;;-140.72;100.00;52350.28;5064305;28;20059;-71
2022/09/06 04:14:41;;;;;;;3.88;2.55;;;;;;;-140.72;100.00;52338.09;5084350;28;20026;-71
2022/09/06 04:17:07;;;;;;;3.05;2.47;;;;;;;-140.72;100.00;52295.50;5057529;28;20029;-72
2022/09/06 04:19:33;;;;;;;3.25;2.42;;;;;;;-140.72;100.00;52342.16;5057560;28;20064;-72
2022/09/06 04:21:58;;;;;;;3.95;2.05;;;;;;;-140.72;100.00;52366.50;5059967;28;20071;-73
2022/09/06 04:24:24;;;;;;;3.25;2.22;;;;;;;-140.72;100.00;52338.09;5053444;28;20032;-73
2022/09/06 04:26:49;;;;;;;5.75;2.47;;;;;;;-140.72;100.00;52378.69;5054551;28;20021;-72
2022/09/06 04:29:14;;;;;;;3.83;2.53;;;;;;;-140.72;100.00;52338.09;5055261;28;20520;-71
2022/09/06 04:31:40;;;;;;;2.63;1.88;;;;;;;-140.72;100.00;52350.28;5065434;28;20028;-71
2022/09/06 04:34:05;;;;;;;3.25;2.22;;;;;;;-140.72;100.00;52354.34;5060048;28;20429;-71
2022/09/06 04:36:31;;;;;;;3.42;2.22;;;;;;;-140.72;100.00;52366.50;5058195;28;20328;-72
2022/09/06 04:38:56;;;;;;;3.90;3.00;;;;;;;-140.72;100.00;52362.44;5069549;28;20048;-71
2022/09/06 04:41:21;;;;;;;3.28;1.88;;;;;;;-140.72;100.00;52336.06;5070362;28;20020;-71
2022/09/06 04:43:47;;;;;;;3.78;2.65;;;;;;;-140.72;100.00;52346.22;5068916;28;20508;-70
2022/09/06 04:46:23;;;;;;;3.97;2.85;;;;;;;-140.72;100.00;52366.50;5058669;28;20052;-69
2022/09/06 04:48:49;;;;;;;4.55;3.13;;;;;;;-140.72;100.00;52354.34;5060393;28;20035;-70
2022/09/06 04:51:15;;;;;;;5.60;2.72;;;;;;;-140.72;100.00;52362.44;5069333;28;20028;-70
2022/09/06 04:53:40;;;;;;;5.60;2.63;;;;;;;-140.72;100.00;52376.66;5063236;28;20457;-74
2022/09/06 04:56:13;;;;;;;3.50;2.38;;;;;;;-140.72;100.00;52384.78;5061093;28;20500;-74
2022/09/06 04:58:38;;;;;;;3.05;2.50;;;;;;;-140.72;100.00;52386.81;5057759;28;20037;-75
2022/09/06 05:01:03;;;;;;;4.43;2.80;;;;;;;-140.72;100.00;52352.31;5045382;28;20063;-75
2022/09/06 05:03:29;;;;;;;4.85;3.22;;;;;;;-140.72;100.00;52396.94;5062513;28;20035;-76
2022/09/06 05:06:06;;;;;;;4.85;3.08;;;;;;;-140.72;100.00;52352.31;5055864;28;20044;-76
2022/09/06 05:08:32;;;;;;;3.67;2.72;;;;;;;-140.72;100.00;52380.72;5062894;28;20021;-77
2022/09/06 05:10:57;;;;;;;3.60;2.92;;;;;;;-140.72;100.00;52415.22;5070072;28;20043;-75
2022/09/06 05:13:22;;;;;;;3.70;2.88;;;;;;;-140.72;100.00;52380.72;5058941;28;20037;-74
2022/09/06 05:15:48;;;;;;;5.28;3.17;;;;;;;-140.72;100.00;52362.44;5072797;28;20020;-75
2022/09/06 05:18:13;;;;;;;4.28;2.90;;;;;;;-140.72;100.00;52364.47;5056121;28;20064;-69
2022/09/06 05:20:39;;;;;;;3.47;2.50;;;;;;;-140.72;100.00;52350.28;5052656;28;20056;-71
2022/09/06 05:23:04;;;;;;;4.80;2.97;;;;;;;-140.72;100.00;52388.84;5060327;28;20146;-71
2022/09/06 05:25:30;;;;;;;4.00;2.58;;;;;;;-140.72;100.00;52382.75;5057813;28;20028;-70
2022/09/06 05:27:55;;;;;;;3.63;2.50;;;;;;;-140.72;100.00;52388.84;5056541;28;20046;-69
2022/09/06 05:30:20;;;;;;;3.63;2.38;;;;;;;-140.72;100.00;52364.47;5067872;28;20029;-70
2022/09/06 05:32:46;;;;;;;3.88;2.70;;;;;;;-140.72;100.00;52378.69;5058690;28;20025;-70
2022/09/06 05:35:11;;;;;;;3.50;2.55;;;;;;;-140.72;100.00;52336.06;5065639;28;20037;-71
2022/09/06 05:37:36;;;;;;;3.53;2.70;;;;;;;-140.72;100.00;52390.84;5062161;28;20102;-70
2022/09/06 05:40:02;;;;;;;4.70;2.97;;;;;;;-140.72;100.00;52372.59;5057128;28;20064;-70
2022/09/06 05:42:27;;;;;;;3.92;3.03;;;;;;;-140.72;100.00;52360.44;5058147;28;20029;-71
2022/09/06 05:44:53;;;;;;;4.53;2.85;;;;;;;-140.72;100.00;52344.19;5060266;28;20032;-70
2022/09/06 05:47:18;;;;;;;4.05;2.42;;;;;;;-140.72;100.00;52346.22;5055525;28;20032;-71
2022/09/06 05:49:45;;;;;;;4.93;3.15;;;;;;;-140.72;100.00;52348.25;5050669;28;20017;-70
2022/09/06 05:52:10;;;;;;;6.05;2.90;;;;;;;-140.72;100.00;52362.44;5066350;28;20028;-71
2022/09/06 05:54:35;;;;;;;4.07;2.83;;;;;;;-140.72;100.00;52392.88;5066458;28;20531;-70
2022/09/06 05:57:01;;;;;;;3.20;2.35;;;;;;;-140.72;100.00;52384.78;5055508;28;20052;-69
2022/09/06 05:59:26;;;;;;;5.47;3.85;;;;;;;-140.72;100.00;52362.44;5063207;28;20098;-70
2022/09/06 06:01:52;;;;;;;8.82;3.35;;;;;;;-140.72;100.00;52392.88;5068276;28;20027;-70
2022/09/06 06:04:19;;;;;;;5.40;3.38;;;;;;;-140.72;100.00;52362.44;5051053;28;20086;-70
2022/09/06 06:06:45;;;;;;;5.03;3.92;;;;;;;-140.72;100.00;52407.09;5063886;28;20112;-70
2022/09/06 06:09:12;;;;;;;5.30;4.45;;;;;;;-140.72;100.00;52376.66;5051067;28;20387;-70
2022/09/06 06:11:37;;;;;;;6.53;3.70;;;;;;;-140.72;100.00;52358.41;5051385;28;20083;-70
2022/09/06 06:14:03;;;;;;;6.55;3.08;;;;;;;-140.72;100.00;52348.25;5056425;28;20033;-71
2022/09/06 06:16:29;;;;;;;5.10;3.65;;;;;;;-140.72;100.00;52378.69;5059837;28;20038;-71
2022/09/06 06:18:55;;;;;;;4.78;3.13;;;;;;;-140.72;100.00;52378.69;5064872;28;20032;-71
2022/09/06 06:21:26;;;;;;;4.40;3.13;;;;;;;-140.72;100.00;52364.47;5065832;28;20071;-71
2022/09/06 06:23:53;;;;;;;4.30;2.95;;;;;;;-140.72;100.00;52364.47;5057830;28;20033;-71
2022/09/06 06:26:19;;;;;;;6.30;3.80;;;;;;;-140.72;100.00;52386.81;5060664;28;20037;-71
2022/09/06 06:28:45;;;;;;;5.80;3.47;;;;;;;-140.72;100.00;52358.41;5066836;28;20488;-71
2022/09/06 06:31:11;;;;;;;5.57;4.10;;;;;;;-140.72;100.00;52358.41;5065583;28;20017;-70
2022/09/06 06:33:38;;;;;;;5.13;3.70;;;;;;;-140.72;100.00;52374.63;5066210;28;20028;-70
2022/09/06 06:36:06;;;;;;;5.15;4.13;;;;;;;-140.72;100.00;52342.16;5061451;28;20026;-71
2022/09/06 06:38:37;;;;;;;5.20;3.83;;;;;;;-140.72;100.00;52336.06;5062525;28;20090;-72
2022/09/06 06:41:04;;;;;;;5.88;3.28;;;;;;;-140.72;100.00;52344.19;5062405;28;20090;-72
2022/09/06 06:43:35;;;;;;;4.65;4.05;;;;;;;-140.72;100.00;52315.78;5068165;28;20024;-72
2022/09/06 06:46:05;;;;;;;6.32;4.32;;;;;;;-140.72;100.00;52370.56;5067807;28;20028;-72
2022/09/06 06:48:31;;;;;;;5.95;4.38;;;;;;;-140.72;100.00;52364.47;5056450;28;20029;-71
2022/09/06 06:50:56;;;;;;;6.70;4.40;;;;;;;-140.72;100.00;52354.34;5059916;28;20029;-71
2022/09/06 06:53:22;;;;;;;5.97;4.47;;;;;;;-140.72;100.00;52394.91;5073058;28;20025;-71
2022/09/06 06:55:47;;;;;;;6.15;4.85;;;;;;;-140.72;100.00;52352.31;5071056;28;20161;-71
2022/09/06 06:58:14;;;;;;;5.28;4.53;;;;;;;-140.72;100.00;52348.25;5071750;28;20481;-72
2022/09/06 07:00:40;;;;;;;5.90;4.47;;;;;;;-140.72;100.00;52350.28;5071352;28;20035;-71
2022/09/06 07:03:07;;;;;;;7.57;4.95;;;;;;;-140.72;100.00;52334.03;5085359;28;20054;-72
2022/09/06 07:05:33;;;;;;;6.00;5.22;;;;;;;-140.72;100.00;52370.56;5051554;28;20045;-71
2022/09/06 07:07:58;;;;;;;9.48;5.50;;;;;;;-140.72;100.00;52342.16;5078183;28;20264;-71
2022/09/06 07:10:24;;;;;;;7.72;4.90;;;;;;;-140.72;100.00;52327.97;5081028;28;20039;-70
2022/09/06 07:12:49;;;;;;;7.15;5.05;;;;;;;-140.72;100.00;52350.28;5069840;28;20031;-69
2022/09/06 07:15:18;;;;;;;5.80;3.55;;;;;;;-140.72;100.00;52334.03;5076577;28;20107;-70
2022/09/06 07:17:43;;;;;;;4.75;3.97;;;;;;;-140.72;100.00;52305.63;5069836;28;20437;-71
2022/09/06 07:20:10;;;;;;;5.75;3.90;;;;;;;-140.72;100.00;52299.56;5072046;28;20130;-71
2022/09/06 07:22:35;;;;;;;6.70;4.53;;;;;;;-140.72;100.00;52301.59;5054654;28;20180;-70
2022/09/06 07:25:02;;;;;;;5.70;4.13;;;;;;;-140.72;100.00;52307.66;5058973;28;20064;-71
2022/09/06 07:27:28;;;;;;;5.03;3.65;;;;;;;-140.72;100.00;52327.97;5070223;28;20032;-71
2022/09/06 07:29:53;;;;;;;6.60;3.72;;;;;;;-140.72;100.00;52307.66;5071528;28;20035;-72
2022/09/06 07:32:18;;;;;;;5.65;4.57;;;;;;;-140.72;100.00;52378.69;5077733;28;20031;-71
2022/09/06 07:34:44;;;;;;;6.20;4.50;;;;;;;-140.72;100.00;52295.50;5067954;28;20405;-70
2022/09/06 07:37:09;;;;;;;6.57;4.05;;;;;;;-140.72;100.00;52311.72;5077192;28;20056;-71
2022/09/06 07:39:35;;;;;;;4.72;3.53;;;;;;;-140.72;100.00;52330.00;5067099;28;20139;-72
2022/09/06 07:42:02;;;;;;;5.50;4.25;;;;;;;-140.72;100.00;52307.66;5079699;28;20028;-73
2022/09/06 07:44:28;;;;;;;5.43;3.63;;;;;;;-140.72;100.00;52297.53;5077345;28;20602;-72
2022/09/06 07:46:53;;;;;;;4.90;4.10;;;;;;;-140.72;100.00;52291.44;5073523;28;20081;-73
2022/09/06 07:49:19;;;;;;;5.05;3.63;;;;;;;-140.72;100.00;52350.28;5061720;28;20111;-74
2022/09/06 07:51:46;;;;;;;6.65;4.55;;;;;;;-140.72;100.00;52311.72;5068574;28;20407;-71
2022/09/06 07:54:11;;;;;;;5.80;4.20;;;;;;;-140.72;100.00;52323.91;5050969;28;20032;-71
2022/09/06 07:56:37;;;;;;;5.32;4.30;;;;;;;-140.72;100.00;52342.16;5058744;28;20024;-72
2022/09/06 07:59:02;;;;;;;6.30;4.20;;;;;;;-140.72;100.00;52301.59;5063976;28;20040;-73
2022/09/06 08:01:33;;;;;;;4.43;3.40;;;;;;;-140.72;100.00;52289.41;5056766;28;20057;-74
2022/09/06 08:04:14;;;;;;;6.53;4.75;;;;;;;-140.72;100.00;52287.38;5060169;28;20036;-71
2022/09/06 08:06:46;;;;;;;5.30;3.53;;;;;;;-140.72;100.00;52285.34;5060339;28;20021;-71
2022/09/06 08:09:12;;;;;;;3.70;2.90;;;;;;;-140.72;100.00;52285.34;5064866;28;20051;-72
2022/09/06 08:11:38;;;;;;;4.47;3.13;;;;;;;-140.72;100.00;52319.84;5085676;28;20040;-72
2022/09/06 08:14:05;;;;;;;7.97;5.22;;;;;;;-140.72;100.00;52338.09;5073209;28;20028;-73
2022/09/06 08:16:32;;;;;;;7.78;5.20;;;;;;;-140.72;100.00;52277.22;5081843;28;20113;-71
2022/09/06 08:19:00;;;;;;;9.40;5.43;;;;;;;-140.72;100.00;52291.44;5083517;28;20448;-70
2022/09/06 08:21:28;;;;;;;11.90;6.35;;;;;;;-140.72;100.00;52263.03;5089668;28;20141;-71
2022/09/06 08:24:05;;;;;;;10.93;6.30;;;;;;;-140.72;100.00;52313.75;5086809;28;20035;-72
2022/09/06 08:26:32;;;;;;;22.48;11.18;;;;;;;-140.72;100.00;52301.59;5069360;28;20033;-72
2022/09/06 08:29:06;;;;;;;8.68;4.55;;;;;;;-140.72;100.00;52285.34;5061200;28;20025;-70
2022/09/06 08:31:33;;;;;;;5.03;3.47;;;;;;;-140.72;100.00;52277.22;5060095;28;20457;-72
2022/09/06 08:34:00;;;;;;;5.57;3.85;;;;;;;-140.72;100.00;52281.28;5058205;28;20021;-72
2022/09/06 08:36:28;;;;;;;5.20;3.38;;;;;;;-140.72;100.00;52285.34;5079147;28;20094;-71
2022/09/06 08:38:54;;;;;;;5.38;3.55;;;;;;;-140.72;100.00;52256.94;5055863;28;20054;-71
2022/09/06 08:41:31;;;;;;;4.13;2.65;;;;;;;-140.72;100.00;52254.91;5061356;28;20385;-70
2022/09/06 08:44:01;;;;;;;5.68;3.75;;;;;;;-140.72;100.00;52273.19;5059145;28;20033;-71
2022/09/06 08:46:52;;;;;;;3.42;2.53;;;;;;;-140.72;100.00;52265.06;5063025;28;20029;-72
2022/09/06 08:49:17;;;;;;;3.92;2.33;;;;;;;-140.72;100.00;52263.03;5060616;28;20412;-71
2022/09/06 08:52:01;;;;;;;4.60;2.25;;;;;;;-140.72;100.00;52216.34;5061903;28;20029;-71
2022/09/06 08:54:41;;;;;;;3.97;2.95;;;;;;;-140.72;100.00;52214.34;5076518;28;20039;-71
2022/09/06 08:57:28;;;;;;;4.43;2.85;;;;;;;-140.72;100.00;52222.44;5056723;28;20078;-73
2022/09/06 09:00:00;;;;;;;5.13;2.80;;;;;;;-140.72;100.00;52206.22;5060954;28;20032;-72
2022/09/06 09:02:27;;;;;;;2.80;2.10;;;;;;;-140.72;100.00;52171.72;5072863;28;20121;-71
2022/09/06 09:04:57;;;;;;;3.67;2.30;;;;;;;-140.72;100.00;52159.56;5065037;28;20122;-71
2022/09/06 09:07:40;;;;;;;5.10;2.25;;;;;;;-140.72;100.00;52151.44;5056630;28;20024;-71
2022/09/06 09:10:13;;;;;;;3.63;2.30;;;;;;;-140.72;100.00;52173.75;5056238;28;20017;-71
2022/09/06 09:12:45;;;;;;;4.25;2.10;;;;;;;-140.72;80.23;52161.56;5067469;28;20036;-71
2022/09/06 09:15:13;;;;;;;4.35;2.30;;;;;;;-140.72;56.14;52116.94;5073902;28;20063;-72
2022/09/06 09:17:42;;;;;;;4.45;2.58;;;;;;;-140.72;32.46;52145.34;5066748;28;20032;-71
2022/09/06 09:20:09;;;;;;;4.45;2.67;;;;;;;-140.72;26.88;52155.50;5064710;28;20113;-72
2022/09/06 09:22:35;;;;;;;3.47;2.42;;;;;;;-140.72;9.18;52108.81;5068536;28;20082;-72
2022/09/06 09:25:01;;;;;;;5.00;2.50;;;;;;;-140.72;0.72;52108.81;5079557;28;20032;-72
2022/09/06 09:27:30;;;;;;;4.40;2.47;;;;;;;-140.72;0.00;52076.34;5070312;28;20466;-70
2022/09/06 09:29:59;;;;;;;;;;;;;;;-140.72;0.00;52102.75;5085283;28;20373;-71
2022/09/06 09:32:30;;;;;;;7.20;2.50;;;;;;;-140.72;0.00;52080.41;5086138;28;19965;-73
2022/09/06 09:35:22;;;;;;;3.35;2.20;;;;;;;-140.72;0.00;52082.44;5077947;28;20585;-73
2022/09/06 09:37:56;;;;;;;6.53;2.72;;;;;;;-140.72;0.00;52082.44;5073568;28;20074;-73
2022/09/06 09:40:24;;;;;;;3.60;2.75;;;;;;;-140.72;0.00;52045.94;5070635;28;20023;-73
2022/09/06 09:42:55;;;;;;;4.68;2.60;;;;;;;-140.72;0.00;52094.63;5066944;28;20039;-73
2022/09/06 09:45:24;;;;;;;4.40;2.75;;;;;;;-140.72;0.00;52090.56;5078316;28;20024;-72
2022/09/06 09:47:50;;;;;;;3.15;2.00;;;;;;;-140.72;0.00;52047.97;5060141;28;20040;-71
2022/09/06 09:50:30;;;;;;;3.35;1.95;;;;;;;-140.72;0.00;52080.41;5052737;28;20044;-73
2022/09/06 09:53:06;;;;;;;4.22;2.42;;;;;;;-140.72;0.00;52094.63;5062289;28;20028;-71
2022/09/06 09:55:31;;;;;;;3.60;2.42;;;;;;;-140.72;0.00;52145.34;5061599;28;20052;-71
2022/09/06 09:57:58;;;;;;;3.75;2.15;;;;;;;-140.72;0.00;52094.63;5057738;28;20035;-72
2022/09/06 10:00:41;;;;;;;4.80;2.47;;;;;;;-140.72;0.00;52102.75;5058103;28;20488;-71
2022/09/06 10:03:16;;;;;;;4.22;1.90;;;;;;;-140.72;0.00;52068.25;5057733;28;20081;-71
2022/09/06 10:05:53;;;;;;;3.88;2.25;;;;;;;-140.72;0.00;52056.06;5074352;28;20024;-72
2022/09/06 10:08:22;;;;;;;3.60;2.10;;;;;;;-140.72;0.00;52062.16;5061942;28;20149;-73
2022/09/06 10:10:48;;;;;;;4.43;2.00;;;;;;;-140.72;0.00;52017.53;5074676;28;20029;-73
2022/09/06 10:13:16;;;;;;;4.03;2.00;;;;;;;-140.72;0.00;52007.38;5076200;28;20486;-72
2022/09/06 10:15:42;;;;;;;2.63;1.60;;;;;;;-140.72;0.00;52049.97;5074373;28;20032;-72
2022/09/06 10:18:30;;;;;;;3.42;2.53;;;;;;;-140.72;0.00;52029.69;5069218;28;20036;-73
2022/09/06 10:21:14;;;;;;;4.82;2.35;;;;;;;-140.72;0.00;51995.19;5057748;28;20051;-73
2022/09/06 10:24:05;;;;;;;3.50;2.00;;;;;;;-140.72;0.00;51960.72;5068387;28;20036;-72
2022/09/06 10:26:50;;;;;;;2.40;1.90;;;;;;;-140.72;0.00;51938.41;5075962;28;20361;-71
2022/09/06 10:29:29;;;;;;;4.25;1.50;;;;;;;-140.72;0.00;51960.72;5057424;28;20050;-74
2022/09/06 10:32:18;;;;;;;;;;;;;;;-140.72;0.00;51981.00;5067719;28;20537;-73
2022/09/06 10:35:12;;;;;;;2.87;1.93;;;;;;;-140.72;0.00;51954.63;5078129;28;19908;-74
2022/09/06 10:37:55;;;;;;;2.85;1.65;;;;;;;-140.72;0.00;51981.00;5051958;28;20029;-72
2022/09/06 10:40:24;;;;;;;3.00;1.73;;;;;;;-140.72;0.00;51918.09;5063153;28;20021;-73
2022/09/06 10:42:52;;;;;;;2.72;2.00;;;;;;;-140.72;0.00;51942.44;5061469;28;20047;-72
2022/09/06 10:45:30;;;;;;;3.20;1.77;;;;;;;-140.72;0.00;51918.09;5056355;28;20028;-72
2022/09/06 10:48:03;;;;;;;3.50;1.67;;;;;;;-140.72;0.00;51869.41;5058184;28;20029;-73
2022/09/06 10:50:49;;;;;;;3.05;1.67;;;;;;;-140.72;0.00;51847.09;5054726;28;20024;-72
2022/09/06 10:53:20;;;;;;;2.70;1.65;;;;;;;-140.72;0.00;51867.38;5059136;28;20020;-72
2022/09/06 10:55:52;;;;;;;3.95;2.38;;;;;;;-140.72;0.00;51836.94;5054083;28;20163;-73
2022/09/06 10:58:26;;;;;;;3.28;2.08;;;;;;;-140.72;0.00;51883.63;5060696;28;20024;-73
2022/09/06 11:00:53;;;;;;;3.60;2.08;;;;;;;-140.72;0.00;51826.81;5052560;28;20473;-72
2022/09/06 11:03:26;;;;;;;3.60;2.50;;;;;;;-140.72;0.00;51843.03;5055536;28;20037;-73
2022/09/06 11:05:57;;;;;;;4.18;2.83;;;;;;;-140.72;0.00;51826.81;5066878;28;20040;-71
2022/09/06 11:08:48;;;;;;;3.75;2.55;;;;;;;-140.72;0.00;51857.25;5054507;28;20036;-72
2022/09/06 11:11:26;;;;;;;3.67;1.90;;;;;;;-140.72;0.00;51782.16;5076090;28;20021;-72
2022/09/06 11:13:51;;;;;;;3.88;2.42;;;;;;;-140.72;0.00;51765.94;5059384;28;20059;-73
2022/09/06 11:16:32;;;;;;;3.85;2.00;;;;;;;-140.72;0.00;51790.28;5065440;28;20024;-72
2022/09/06 11:19:02;;;;;;;4.30;2.03;;;;;;;-140.72;0.00;51780.16;5067108;28;20522;-72
2022/09/06 11:21:53;;;;;;;3.22;2.00;;;;;;;-140.72;0.00;51757.81;5063182;28;20071;-72
2022/09/06 11:24:47;;;;;;;4.72;2.42;;;;;;;-140.72;0.00;51883.63;5058139;28;20074;-72